sensor_id;sensor_type;location;lat;lon;timestamp;temperature;humidity
10433;DHT22;5263;48.680;9.004;2023-06-19T00:02:01;22.40;89.50
10433;DHT22;5263;48.680;9.004;2023-06-19T00:04:26;22.40;89.50
10433;DHT22;5263;48.680;9.004;2023-06-19T00:06:53;22.40;89.60
10433;DHT22;5263;48.680;9.004;2023-06-19T00:09:19;22.40;89.10
10433;DHT22;5263;48.680;9.004;2023-06-19T00:11:44;22.20;88.90
10433;DHT22;5263;48.680;9.004;2023-06-19T00:14:10;22.20;89.70
10433;DHT22;5263;48.680;9.004;2023-06-19T00:16:36;22.20;89.70
10433;DHT22;5263;48.680;9.004;2023-06-19T00:19:01;22.20;89.70
10433;DHT22;5263;48.680;9.004;2023-06-19T00:21:29;22.20;90.20
10433;DHT22;5263;48.680;9.004;2023-06-19T00:23:55;22.20;89.00
10433;DHT22;5263;48.680;9.004;2023-06-19T00:26:21;22.10;89.20
10433;DHT22;5263;48.680;9.004;2023-06-19T00:28:48;22.10;88.80
10433;DHT22;5263;48.680;9.004;2023-06-19T00:31:15;22.20;89.10
10433;DHT22;5263;48.680;9.004;2023-06-19T00:33:42;22.20;88.50
10433;DHT22;5263;48.680;9.004;2023-06-19T00:36:11;22.30;88.20
10433;DHT22;5263;48.680;9.004;2023-06-19T00:38:38;22.30;87.80
10433;DHT22;5263;48.680;9.004;2023-06-19T00:41:04;22.20;88.60
10433;DHT22;5263;48.680;9.004;2023-06-19T00:43:31;22.10;88.50
10433;DHT22;5263;48.680;9.004;2023-06-19T00:46:00;22.10;89.50
10433;DHT22;5263;48.680;9.004;2023-06-19T00:48:27;21.90;89.30
10433;DHT22;5263;48.680;9.004;2023-06-19T00:50:53;22.00;90.20
10433;DHT22;5263;48.680;9.004;2023-06-19T00:53:19;22.20;90.20
10433;DHT22;5263;48.680;9.004;2023-06-19T00:55:47;22.20;90.50
10433;DHT22;5263;48.680;9.004;2023-06-19T00:58:13;22.10;90.30
10433;DHT22;5263;48.680;9.004;2023-06-19T01:00:39;22.00;90.80
10433;DHT22;5263;48.680;9.004;2023-06-19T01:03:04;22.20;90.90
10433;DHT22;5263;48.680;9.004;2023-06-19T01:05:30;22.40;90.20
10433;DHT22;5263;48.680;9.004;2023-06-19T01:08:17;22.50;90.20
10433;DHT22;5263;48.680;9.004;2023-06-19T01:10:52;22.40;90.80
10433;DHT22;5263;48.680;9.004;2023-06-19T01:15:56;22.30;90.70
10433;DHT22;5263;48.680;9.004;2023-06-19T01:18:23;22.20;90.90
10433;DHT22;5263;48.680;9.004;2023-06-19T01:20:50;22.10;91.10
10433;DHT22;5263;48.680;9.004;2023-06-19T01:23:16;22.10;91.30
10433;DHT22;5263;48.680;9.004;2023-06-19T01:25:41;22.10;91.30
10433;DHT22;5263;48.680;9.004;2023-06-19T01:28:09;21.90;91.30
10433;DHT22;5263;48.680;9.004;2023-06-19T01:30:39;21.90;91.60
10433;DHT22;5263;48.680;9.004;2023-06-19T01:33:15;21.70;92.40
10433;DHT22;5263;48.680;9.004;2023-06-19T01:35:43;21.70;92.90
10433;DHT22;5263;48.680;9.004;2023-06-19T01:38:11;21.70;93.20
10433;DHT22;5263;48.680;9.004;2023-06-19T01:40:37;21.70;93.30
10433;DHT22;5263;48.680;9.004;2023-06-19T01:43:05;21.70;93.40
10433;DHT22;5263;48.680;9.004;2023-06-19T01:45:32;21.70;93.50
10433;DHT22;5263;48.680;9.004;2023-06-19T01:47:59;21.50;93.70
10433;DHT22;5263;48.680;9.004;2023-06-19T01:50:25;21.20;94.20
10433;DHT22;5263;48.680;9.004;2023-06-19T01:52:51;21.10;94.90
10433;DHT22;5263;48.680;9.004;2023-06-19T01:55:17;20.90;95.60
10433;DHT22;5263;48.680;9.004;2023-06-19T01:57:42;20.90;96.00
10433;DHT22;5263;48.680;9.004;2023-06-19T02:00:08;20.80;96.30
10433;DHT22;5263;48.680;9.004;2023-06-19T02:02:36;21.00;97.60
10433;DHT22;5263;48.680;9.004;2023-06-19T02:05:01;21.10;98.10
10433;DHT22;5263;48.680;9.004;2023-06-19T02:07:27;21.00;98.60
10433;DHT22;5263;48.680;9.004;2023-06-19T02:09:53;20.80;99.40
10433;DHT22;5263;48.680;9.004;2023-06-19T02:12:19;20.90;99.80
10433;DHT22;5263;48.680;9.004;2023-06-19T02:14:44;20.80;99.90
10433;DHT22;5263;48.680;9.004;2023-06-19T02:17:10;20.90;99.90
10433;DHT22;5263;48.680;9.004;2023-06-19T02:19:36;20.90;99.90
10433;DHT22;5263;48.680;9.004;2023-06-19T02:22:01;20.70;99.90
10433;DHT22;5263;48.680;9.004;2023-06-19T02:24:27;20.60;99.90
10433;DHT22;5263;48.680;9.004;2023-06-19T02:26:53;20.60;99.90
10433;DHT22;5263;48.680;9.004;2023-06-19T02:29:18;20.50;99.90
10433;DHT22;5263;48.680;9.004;2023-06-19T02:31:44;20.40;99.90
10433;DHT22;5263;48.680;9.004;2023-06-19T02:34:10;20.50;99.90
10433;DHT22;5263;48.680;9.004;2023-06-19T02:36:36;20.70;99.90
10433;DHT22;5263;48.680;9.004;2023-06-19T02:39:04;20.70;99.90
10433;DHT22;5263;48.680;9.004;2023-06-19T02:41:31;20.60;99.90
10433;DHT22;5263;48.680;9.004;2023-06-19T02:43:56;20.50;99.90
10433;DHT22;5263;48.680;9.004;2023-06-19T02:46:22;20.50;99.90
10433;DHT22;5263;48.680;9.004;2023-06-19T02:48:47;20.50;99.90
10433;DHT22;5263;48.680;9.004;2023-06-19T02:51:13;20.50;99.90
10433;DHT22;5263;48.680;9.004;2023-06-19T02:53:38;20.50;99.90
10433;DHT22;5263;48.680;9.004;2023-06-19T02:56:04;20.50;99.90
10433;DHT22;5263;48.680;9.004;2023-06-19T02:58:30;20.50;99.90
10433;DHT22;5263;48.680;9.004;2023-06-19T03:00:56;20.40;99.90
10433;DHT22;5263;48.680;9.004;2023-06-19T03:03:22;20.40;99.90
10433;DHT22;5263;48.680;9.004;2023-06-19T03:05:48;20.50;99.90
10433;DHT22;5263;48.680;9.004;2023-06-19T03:08:14;20.50;99.90
10433;DHT22;5263;48.680;9.004;2023-06-19T03:10:39;20.40;99.90
10433;DHT22;5263;48.680;9.004;2023-06-19T03:13:05;20.50;99.90
10433;DHT22;5263;48.680;9.004;2023-06-19T03:15:30;20.30;99.90
10433;DHT22;5263;48.680;9.004;2023-06-19T03:17:56;20.30;99.90
10433;DHT22;5263;48.680;9.004;2023-06-19T03:20:22;20.40;99.90
10433;DHT22;5263;48.680;9.004;2023-06-19T03:22:47;20.30;99.90
10433;DHT22;5263;48.680;9.004;2023-06-19T03:25:13;20.20;99.90
10433;DHT22;5263;48.680;9.004;2023-06-19T03:27:39;20.00;99.90
10433;DHT22;5263;48.680;9.004;2023-06-19T03:30:05;19.90;99.90
10433;DHT22;5263;48.680;9.004;2023-06-19T03:32:38;19.80;99.90
10433;DHT22;5263;48.680;9.004;2023-06-19T03:35:04;19.80;99.90
10433;DHT22;5263;48.680;9.004;2023-06-19T03:37:30;19.70;99.90
10433;DHT22;5263;48.680;9.004;2023-06-19T03:39:57;19.90;99.90
10433;DHT22;5263;48.680;9.004;2023-06-19T03:42:23;19.90;99.90
10433;DHT22;5263;48.680;9.004;2023-06-19T03:44:49;19.90;99.90
10433;DHT22;5263;48.680;9.004;2023-06-19T03:47:14;19.80;99.90
10433;DHT22;5263;48.680;9.004;2023-06-19T03:49:41;19.70;99.90
10433;DHT22;5263;48.680;9.004;2023-06-19T03:52:07;19.20;99.90
10433;DHT22;5263;48.680;9.004;2023-06-19T03:54:33;19.10;99.90
10433;DHT22;5263;48.680;9.004;2023-06-19T03:56:58;19.00;99.90
10433;DHT22;5263;48.680;9.004;2023-06-19T03:59:24;19.00;99.90
10433;DHT22;5263;48.680;9.004;2023-06-19T04:01:50;19.00;99.90
10433;DHT22;5263;48.680;9.004;2023-06-19T04:04:15;18.90;99.90
10433;DHT22;5263;48.680;9.004;2023-06-19T04:06:41;18.80;99.90
10433;DHT22;5263;48.680;9.004;2023-06-19T04:09:06;18.70;99.90
10433;DHT22;5263;48.680;9.004;2023-06-19T04:11:32;18.40;99.90
10433;DHT22;5263;48.680;9.004;2023-06-19T04:13:57;18.10;99.90
10433;DHT22;5263;48.680;9.004;2023-06-19T04:16:23;17.90;99.90
10433;DHT22;5263;48.680;9.004;2023-06-19T04:18:49;17.70;99.90
10433;DHT22;5263;48.680;9.004;2023-06-19T04:21:14;17.40;99.90
10433;DHT22;5263;48.680;9.004;2023-06-19T04:23:40;17.30;99.90
10433;DHT22;5263;48.680;9.004;2023-06-19T04:26:06;17.30;99.90
10433;DHT22;5263;48.680;9.004;2023-06-19T04:28:31;17.30;99.90
10433;DHT22;5263;48.680;9.004;2023-06-19T04:30:57;17.40;99.90
10433;DHT22;5263;48.680;9.004;2023-06-19T04:33:29;17.30;99.90
10433;DHT22;5263;48.680;9.004;2023-06-19T04:35:55;17.30;99.90
10433;DHT22;5263;48.680;9.004;2023-06-19T04:38:21;17.50;99.90
10433;DHT22;5263;48.680;9.004;2023-06-19T04:40:52;17.60;99.90
10433;DHT22;5263;48.680;9.004;2023-06-19T04:43:18;17.60;99.90
10433;DHT22;5263;48.680;9.004;2023-06-19T04:45:44;17.60;99.90
10433;DHT22;5263;48.680;9.004;2023-06-19T04:48:10;17.90;99.90
10433;DHT22;5263;48.680;9.004;2023-06-19T04:50:36;18.10;99.90
10433;DHT22;5263;48.680;9.004;2023-06-19T04:53:02;18.10;99.90
10433;DHT22;5263;48.680;9.004;2023-06-19T04:55:28;18.20;99.90
10433;DHT22;5263;48.680;9.004;2023-06-19T04:57:53;18.30;99.90
10433;DHT22;5263;48.680;9.004;2023-06-19T05:00:20;18.40;99.90
10433;DHT22;5263;48.680;9.004;2023-06-19T05:02:48;18.50;99.90
10433;DHT22;5263;48.680;9.004;2023-06-19T05:05:14;18.50;99.90
10433;DHT22;5263;48.680;9.004;2023-06-19T05:07:40;18.60;99.90
10433;DHT22;5263;48.680;9.004;2023-06-19T05:10:06;18.60;99.90
10433;DHT22;5263;48.680;9.004;2023-06-19T05:12:33;18.70;99.90
10433;DHT22;5263;48.680;9.004;2023-06-19T05:14:59;18.90;99.90
10433;DHT22;5263;48.680;9.004;2023-06-19T05:17:24;19.00;99.90
10433;DHT22;5263;48.680;9.004;2023-06-19T05:19:50;19.10;99.90
10433;DHT22;5263;48.680;9.004;2023-06-19T05:22:15;19.30;99.90
10433;DHT22;5263;48.680;9.004;2023-06-19T05:24:43;19.40;99.90
10433;DHT22;5263;48.680;9.004;2023-06-19T05:27:09;19.50;99.90
10433;DHT22;5263;48.680;9.004;2023-06-19T05:29:35;19.70;99.90
10433;DHT22;5263;48.680;9.004;2023-06-19T05:32:00;19.80;99.90
10433;DHT22;5263;48.680;9.004;2023-06-19T05:34:26;19.90;99.90
10433;DHT22;5263;48.680;9.004;2023-06-19T05:36:51;19.90;99.90
10433;DHT22;5263;48.680;9.004;2023-06-19T05:39:17;20.00;99.90
10433;DHT22;5263;48.680;9.004;2023-06-19T05:41:44;20.00;99.90
10433;DHT22;5263;48.680;9.004;2023-06-19T05:44:11;20.20;99.90
10433;DHT22;5263;48.680;9.004;2023-06-19T05:46:41;20.20;99.90
10433;DHT22;5263;48.680;9.004;2023-06-19T05:49:06;20.30;99.90
10433;DHT22;5263;48.680;9.004;2023-06-19T05:51:32;20.30;99.90
10433;DHT22;5263;48.680;9.004;2023-06-19T05:53:58;20.40;99.90
10433;DHT22;5263;48.680;9.004;2023-06-19T05:56:31;20.40;99.90
10433;DHT22;5263;48.680;9.004;2023-06-19T05:58:58;20.50;99.90
10433;DHT22;5263;48.680;9.004;2023-06-19T06:01:25;20.70;99.90
10433;DHT22;5263;48.680;9.004;2023-06-19T06:03:53;20.70;99.90
10433;DHT22;5263;48.680;9.004;2023-06-19T06:06:19;20.60;99.90
10433;DHT22;5263;48.680;9.004;2023-06-19T06:08:45;20.70;99.90
10433;DHT22;5263;48.680;9.004;2023-06-19T06:11:10;20.90;99.90
10433;DHT22;5263;48.680;9.004;2023-06-19T06:13:36;21.00;99.90
10433;DHT22;5263;48.680;9.004;2023-06-19T06:16:02;21.10;99.90
10433;DHT22;5263;48.680;9.004;2023-06-19T06:18:27;21.20;99.90
10433;DHT22;5263;48.680;9.004;2023-06-19T06:20:53;21.00;99.90
10433;DHT22;5263;48.680;9.004;2023-06-19T06:23:18;21.10;99.90
10433;DHT22;5263;48.680;9.004;2023-06-19T06:25:44;21.10;99.90
10433;DHT22;5263;48.680;9.004;2023-06-19T06:28:11;21.10;99.90
10433;DHT22;5263;48.680;9.004;2023-06-19T06:30:36;21.30;99.90
10433;DHT22;5263;48.680;9.004;2023-06-19T06:33:02;21.40;99.90
10433;DHT22;5263;48.680;9.004;2023-06-19T06:35:28;21.60;99.90
10433;DHT22;5263;48.680;9.004;2023-06-19T06:37:53;21.70;99.90
10433;DHT22;5263;48.680;9.004;2023-06-19T06:40:19;21.60;99.90
10433;DHT22;5263;48.680;9.004;2023-06-19T06:42:45;21.50;99.90
10433;DHT22;5263;48.680;9.004;2023-06-19T06:45:10;21.80;99.90
10433;DHT22;5263;48.680;9.004;2023-06-19T06:47:36;21.60;99.90
10433;DHT22;5263;48.680;9.004;2023-06-19T06:50:02;21.70;99.90
10433;DHT22;5263;48.680;9.004;2023-06-19T06:52:27;21.80;99.90
10433;DHT22;5263;48.680;9.004;2023-06-19T06:54:53;21.80;99.90
10433;DHT22;5263;48.680;9.004;2023-06-19T06:57:19;21.80;99.90
10433;DHT22;5263;48.680;9.004;2023-06-19T06:59:44;21.90;99.90
10433;DHT22;5263;48.680;9.004;2023-06-19T07:02:10;22.00;99.90
10433;DHT22;5263;48.680;9.004;2023-06-19T07:04:36;22.00;99.90
10433;DHT22;5263;48.680;9.004;2023-06-19T07:07:01;22.30;99.90
10433;DHT22;5263;48.680;9.004;2023-06-19T07:09:29;22.40;99.90
10433;DHT22;5263;48.680;9.004;2023-06-19T07:11:54;22.60;99.90
10433;DHT22;5263;48.680;9.004;2023-06-19T07:14:20;22.80;99.90
10433;DHT22;5263;48.680;9.004;2023-06-19T07:16:46;22.90;99.90
10433;DHT22;5263;48.680;9.004;2023-06-19T07:19:12;23.00;99.90
10433;DHT22;5263;48.680;9.004;2023-06-19T07:21:38;23.10;99.90
10433;DHT22;5263;48.680;9.004;2023-06-19T07:24:04;23.10;99.90
10433;DHT22;5263;48.680;9.004;2023-06-19T07:26:30;23.10;99.90
10433;DHT22;5263;48.680;9.004;2023-06-19T07:28:56;23.30;99.90
10433;DHT22;5263;48.680;9.004;2023-06-19T07:31:22;23.30;99.90
10433;DHT22;5263;48.680;9.004;2023-06-19T07:33:47;23.40;99.90
10433;DHT22;5263;48.680;9.004;2023-06-19T07:36:13;23.60;99.90
10433;DHT22;5263;48.680;9.004;2023-06-19T07:38:43;23.90;99.90
10433;DHT22;5263;48.680;9.004;2023-06-19T07:41:09;24.00;99.90
10433;DHT22;5263;48.680;9.004;2023-06-19T07:43:36;23.60;99.90
10433;DHT22;5263;48.680;9.004;2023-06-19T07:46:01;23.50;99.90
10433;DHT22;5263;48.680;9.004;2023-06-19T07:48:27;23.40;99.90
10433;DHT22;5263;48.680;9.004;2023-06-19T07:50:53;23.50;99.90
10433;DHT22;5263;48.680;9.004;2023-06-19T07:53:19;23.40;99.90
10433;DHT22;5263;48.680;9.004;2023-06-19T07:55:44;23.50;99.90
10433;DHT22;5263;48.680;9.004;2023-06-19T07:58:10;23.60;99.90
10433;DHT22;5263;48.680;9.004;2023-06-19T08:00:36;23.50;99.90
10433;DHT22;5263;48.680;9.004;2023-06-19T08:03:01;23.60;99.90
10433;DHT22;5263;48.680;9.004;2023-06-19T08:05:27;23.60;99.90
10433;DHT22;5263;48.680;9.004;2023-06-19T08:07:53;23.70;99.90
10433;DHT22;5263;48.680;9.004;2023-06-19T08:10:18;23.60;99.90
10433;DHT22;5263;48.680;9.004;2023-06-19T08:12:44;23.60;99.90
10433;DHT22;5263;48.680;9.004;2023-06-19T08:15:11;23.80;99.90
10433;DHT22;5263;48.680;9.004;2023-06-19T08:17:38;23.70;99.90
10433;DHT22;5263;48.680;9.004;2023-06-19T08:20:04;23.60;99.90
10433;DHT22;5263;48.680;9.004;2023-06-19T08:22:31;23.50;99.90
10433;DHT22;5263;48.680;9.004;2023-06-19T08:24:56;23.60;99.90
10433;DHT22;5263;48.680;9.004;2023-06-19T08:27:22;23.90;99.90
10433;DHT22;5263;48.680;9.004;2023-06-19T08:29:48;24.10;99.90
10433;DHT22;5263;48.680;9.004;2023-06-19T08:32:13;24.40;99.90
10433;DHT22;5263;48.680;9.004;2023-06-19T08:34:39;24.50;99.90
10433;DHT22;5263;48.680;9.004;2023-06-19T08:37:05;24.60;99.90
10433;DHT22;5263;48.680;9.004;2023-06-19T08:39:31;24.60;99.90
10433;DHT22;5263;48.680;9.004;2023-06-19T08:41:57;24.70;99.90
10433;DHT22;5263;48.680;9.004;2023-06-19T08:44:22;24.60;99.90
10433;DHT22;5263;48.680;9.004;2023-06-19T08:46:48;24.70;99.90
10433;DHT22;5263;48.680;9.004;2023-06-19T08:49:14;25.10;99.90
10433;DHT22;5263;48.680;9.004;2023-06-19T08:51:40;25.40;99.90
10433;DHT22;5263;48.680;9.004;2023-06-19T08:54:07;25.70;99.90
10433;DHT22;5263;48.680;9.004;2023-06-19T08:56:34;26.00;99.90
10433;DHT22;5263;48.680;9.004;2023-06-19T08:59:17;26.10;99.90
10433;DHT22;5263;48.680;9.004;2023-06-19T09:01:54;26.20;99.90
10433;DHT22;5263;48.680;9.004;2023-06-19T09:04:21;26.20;99.90
10433;DHT22;5263;48.680;9.004;2023-06-19T09:07:01;26.30;99.90
10433;DHT22;5263;48.680;9.004;2023-06-19T09:09:30;26.10;99.90
10433;DHT22;5263;48.680;9.004;2023-06-19T09:12:02;26.00;99.90
10433;DHT22;5263;48.680;9.004;2023-06-19T09:14:46;25.90;99.90
10433;DHT22;5263;48.680;9.004;2023-06-19T09:17:17;25.70;99.90
10433;DHT22;5263;48.680;9.004;2023-06-19T09:19:52;25.50;99.90
10433;DHT22;5263;48.680;9.004;2023-06-19T09:22:20;25.20;99.90
10433;DHT22;5263;48.680;9.004;2023-06-19T09:24:47;25.20;99.90
10433;DHT22;5263;48.680;9.004;2023-06-19T09:27:19;25.20;99.90
10433;DHT22;5263;48.680;9.004;2023-06-19T09:29:46;25.20;99.90
10433;DHT22;5263;48.680;9.004;2023-06-19T09:32:24;25.20;99.90
10433;DHT22;5263;48.680;9.004;2023-06-19T09:34:52;25.20;99.90
10433;DHT22;5263;48.680;9.004;2023-06-19T09:37:39;25.20;99.90
10433;DHT22;5263;48.680;9.004;2023-06-19T09:40:06;25.40;99.90
10433;DHT22;5263;48.680;9.004;2023-06-19T09:42:40;25.50;99.90
10433;DHT22;5263;48.680;9.004;2023-06-19T09:45:07;25.90;99.90
10433;DHT22;5263;48.680;9.004;2023-06-19T09:47:44;26.00;99.90
10433;DHT22;5263;48.680;9.004;2023-06-19T09:50:13;26.40;99.90
10433;DHT22;5263;48.680;9.004;2023-06-19T09:52:44;26.70;99.90
10433;DHT22;5263;48.680;9.004;2023-06-19T09:55:54;27.00;99.90
10433;DHT22;5263;48.680;9.004;2023-06-19T09:58:09;27.30;99.90
10433;DHT22;5263;48.680;9.004;2023-06-19T10:00:36;27.30;99.30
10433;DHT22;5263;48.680;9.004;2023-06-19T10:03:02;27.60;99.30
10433;DHT22;5263;48.680;9.004;2023-06-19T10:05:31;27.80;98.80
10433;DHT22;5263;48.680;9.004;2023-06-19T10:07:57;27.50;98.70
10433;DHT22;5263;48.680;9.004;2023-06-19T10:10:28;28.20;97.30
10433;DHT22;5263;48.680;9.004;2023-06-19T10:12:56;28.60;96.40
10433;DHT22;5263;48.680;9.004;2023-06-19T10:15:25;27.60;95.70
10433;DHT22;5263;48.680;9.004;2023-06-19T10:18:05;28.00;96.00
10433;DHT22;5263;48.680;9.004;2023-06-19T10:20:36;28.20;95.40
10433;DHT22;5263;48.680;9.004;2023-06-19T10:23:18;28.10;96.80
10433;DHT22;5263;48.680;9.004;2023-06-19T10:31:05;28.80;95.10
10433;DHT22;5263;48.680;9.004;2023-06-19T10:33:34;28.80;95.50
10433;DHT22;5263;48.680;9.004;2023-06-19T10:36:00;28.70;95.00
10433;DHT22;5263;48.680;9.004;2023-06-19T10:38:27;28.70;94.90
10433;DHT22;5263;48.680;9.004;2023-06-19T10:40:52;29.00;94.10
10433;DHT22;5263;48.680;9.004;2023-06-19T10:43:25;28.90;94.10
10433;DHT22;5263;48.680;9.004;2023-06-19T10:45:56;28.30;94.70
10433;DHT22;5263;48.680;9.004;2023-06-19T10:48:24;28.50;95.50
10433;DHT22;5263;48.680;9.004;2023-06-19T10:50:50;29.30;94.90
10433;DHT22;5263;48.680;9.004;2023-06-19T10:53:26;30.60;92.00
10433;DHT22;5263;48.680;9.004;2023-06-19T10:56:00;30.80;92.00
10433;DHT22;5263;48.680;9.004;2023-06-19T10:58:26;31.90;87.20
10433;DHT22;5263;48.680;9.004;2023-06-19T11:00:52;35.00;81.10
10433;DHT22;5263;48.680;9.004;2023-06-19T11:03:19;37.80;70.90
10433;DHT22;5263;48.680;9.004;2023-06-19T11:05:45;36.40;70.00
10433;DHT22;5263;48.680;9.004;2023-06-19T11:08:17;34.40;73.50
10433;DHT22;5263;48.680;9.004;2023-06-19T11:10:43;31.60;79.10
10433;DHT22;5263;48.680;9.004;2023-06-19T11:13:14;30.70;82.80
10433;DHT22;5263;48.680;9.004;2023-06-19T11:15:39;30.10;85.80
10433;DHT22;5263;48.680;9.004;2023-06-19T11:18:05;29.50;90.00
10433;DHT22;5263;48.680;9.004;2023-06-19T11:20:30;28.90;90.60
10433;DHT22;5263;48.680;9.004;2023-06-19T11:22:59;28.90;91.30
10433;DHT22;5263;48.680;9.004;2023-06-19T11:25:45;28.50;91.60
10433;DHT22;5263;48.680;9.004;2023-06-19T11:28:12;28.50;92.90
10433;DHT22;5263;48.680;9.004;2023-06-19T11:30:39;28.70;92.10
10433;DHT22;5263;48.680;9.004;2023-06-19T11:33:15;27.90;93.70
10433;DHT22;5263;48.680;9.004;2023-06-19T11:35:41;27.60;93.80
10433;DHT22;5263;48.680;9.004;2023-06-19T11:38:17;27.70;94.90
10433;DHT22;5263;48.680;9.004;2023-06-19T11:40:43;28.10;94.80
10433;DHT22;5263;48.680;9.004;2023-06-19T11:43:09;28.50;93.70
10433;DHT22;5263;48.680;9.004;2023-06-19T11:45:45;27.80;94.20
10433;DHT22;5263;48.680;9.004;2023-06-19T11:48:10;27.50;94.60
10433;DHT22;5263;48.680;9.004;2023-06-19T11:50:38;28.10;95.20
10433;DHT22;5263;48.680;9.004;2023-06-19T11:53:03;29.10;92.70
10433;DHT22;5263;48.680;9.004;2023-06-19T11:55:29;31.10;90.30
10433;DHT22;5263;48.680;9.004;2023-06-19T11:57:55;33.80;81.20
10433;DHT22;5263;48.680;9.004;2023-06-19T12:00:20;34.40;78.70
10433;DHT22;5263;48.680;9.004;2023-06-19T12:02:46;35.00;74.00
10433;DHT22;5263;48.680;9.004;2023-06-19T12:05:12;34.90;75.20
10433;DHT22;5263;48.680;9.004;2023-06-19T12:07:39;34.00;72.90
10433;DHT22;5263;48.680;9.004;2023-06-19T12:10:05;33.40;76.90
10433;DHT22;5263;48.680;9.004;2023-06-19T12:12:36;33.90;76.60
10433;DHT22;5263;48.680;9.004;2023-06-19T12:15:02;34.20;76.50
10433;DHT22;5263;48.680;9.004;2023-06-19T12:17:27;35.70;70.40
10433;DHT22;5263;48.680;9.004;2023-06-19T12:19:54;34.20;71.80
10433;DHT22;5263;48.680;9.004;2023-06-19T12:22:19;33.20;75.10
10433;DHT22;5263;48.680;9.004;2023-06-19T12:24:45;31.20;77.00
10433;DHT22;5263;48.680;9.004;2023-06-19T12:27:11;31.60;77.40
10433;DHT22;5263;48.680;9.004;2023-06-19T12:29:37;31.40;75.20
10433;DHT22;5263;48.680;9.004;2023-06-19T12:32:03;30.70;78.60
10433;DHT22;5263;48.680;9.004;2023-06-19T12:34:29;31.00;78.00
10433;DHT22;5263;48.680;9.004;2023-06-19T12:36:54;30.50;78.50
10433;DHT22;5263;48.680;9.004;2023-06-19T12:39:22;32.40;79.10
10433;DHT22;5263;48.680;9.004;2023-06-19T12:41:48;34.60;71.30
10433;DHT22;5263;48.680;9.004;2023-06-19T12:44:14;35.00;70.00
10433;DHT22;5263;48.680;9.004;2023-06-19T12:46:39;34.70;70.20
10433;DHT22;5263;48.680;9.004;2023-06-19T12:49:05;34.80;66.30
10433;DHT22;5263;48.680;9.004;2023-06-19T12:51:30;33.10;70.70
10433;DHT22;5263;48.680;9.004;2023-06-19T12:53:56;31.80;73.30
10433;DHT22;5263;48.680;9.004;2023-06-19T12:56:21;31.90;72.70
10433;DHT22;5263;48.680;9.004;2023-06-19T12:58:47;31.00;77.10
10433;DHT22;5263;48.680;9.004;2023-06-19T13:01:13;31.10;78.10
10433;DHT22;5263;48.680;9.004;2023-06-19T13:03:38;30.90;77.10
10433;DHT22;5263;48.680;9.004;2023-06-19T13:06:04;31.10;77.70
10433;DHT22;5263;48.680;9.004;2023-06-19T13:08:30;30.00;79.90
10433;DHT22;5263;48.680;9.004;2023-06-19T13:10:55;30.10;80.00
10433;DHT22;5263;48.680;9.004;2023-06-19T13:13:21;31.20;77.60
10433;DHT22;5263;48.680;9.004;2023-06-19T13:15:46;32.00;75.40
10433;DHT22;5263;48.680;9.004;2023-06-19T13:18:12;32.10;74.90
10433;DHT22;5263;48.680;9.004;2023-06-19T13:20:38;30.80;75.70
10433;DHT22;5263;48.680;9.004;2023-06-19T13:23:03;30.80;76.90
10433;DHT22;5263;48.680;9.004;2023-06-19T13:25:29;30.70;76.00
10433;DHT22;5263;48.680;9.004;2023-06-19T13:27:54;30.20;76.90
10433;DHT22;5263;48.680;9.004;2023-06-19T13:30:20;29.20;79.70
10433;DHT22;5263;48.680;9.004;2023-06-19T13:32:46;29.30;80.60
10433;DHT22;5263;48.680;9.004;2023-06-19T13:35:11;30.00;81.70
10433;DHT22;5263;48.680;9.004;2023-06-19T13:37:37;30.80;79.70
10433;DHT22;5263;48.680;9.004;2023-06-19T13:40:07;30.50;80.70
10433;DHT22;5263;48.680;9.004;2023-06-19T13:42:33;30.30;81.20
10433;DHT22;5263;48.680;9.004;2023-06-19T13:45:01;30.30;81.60
10433;DHT22;5263;48.680;9.004;2023-06-19T13:47:27;30.60;80.10
10433;DHT22;5263;48.680;9.004;2023-06-19T13:49:53;30.90;79.90
10433;DHT22;5263;48.680;9.004;2023-06-19T13:52:19;31.10;79.50
10433;DHT22;5263;48.680;9.004;2023-06-19T13:54:44;31.10;77.90
10433;DHT22;5263;48.680;9.004;2023-06-19T13:57:10;31.30;78.60
10433;DHT22;5263;48.680;9.004;2023-06-19T13:59:35;30.80;79.10
10433;DHT22;5263;48.680;9.004;2023-06-19T14:02:01;32.10;74.60
10433;DHT22;5263;48.680;9.004;2023-06-19T14:04:27;31.80;75.00
10433;DHT22;5263;48.680;9.004;2023-06-19T14:06:52;34.10;69.10
10433;DHT22;5263;48.680;9.004;2023-06-19T14:09:20;34.40;66.80
10433;DHT22;5263;48.680;9.004;2023-06-19T14:11:46;34.00;67.80
10433;DHT22;5263;48.680;9.004;2023-06-19T14:14:11;33.30;69.50
10433;DHT22;5263;48.680;9.004;2023-06-19T14:16:37;34.10;66.00
10433;DHT22;5263;48.680;9.004;2023-06-19T14:19:03;33.10;66.80
10433;DHT22;5263;48.680;9.004;2023-06-19T14:21:28;32.40;70.50
10433;DHT22;5263;48.680;9.004;2023-06-19T14:23:55;32.40;69.20
10433;DHT22;5263;48.680;9.004;2023-06-19T14:26:21;31.30;72.60
10433;DHT22;5263;48.680;9.004;2023-06-19T14:28:47;31.70;70.80
10433;DHT22;5263;48.680;9.004;2023-06-19T14:31:13;31.80;69.40
10433;DHT22;5263;48.680;9.004;2023-06-19T14:33:39;31.80;68.00
10433;DHT22;5263;48.680;9.004;2023-06-19T14:36:05;31.30;69.20
10433;DHT22;5263;48.680;9.004;2023-06-19T14:38:30;30.90;70.90
10433;DHT22;5263;48.680;9.004;2023-06-19T14:41:00;30.30;73.30
10433;DHT22;5263;48.680;9.004;2023-06-19T14:43:26;31.00;72.10
10433;DHT22;5263;48.680;9.004;2023-06-19T14:45:52;31.00;72.70
10433;DHT22;5263;48.680;9.004;2023-06-19T14:48:17;31.90;73.60
10433;DHT22;5263;48.680;9.004;2023-06-19T14:50:43;32.80;70.30
10433;DHT22;5263;48.680;9.004;2023-06-19T14:53:09;34.60;67.10
10433;DHT22;5263;48.680;9.004;2023-06-19T14:55:34;34.30;64.30
10433;DHT22;5263;48.680;9.004;2023-06-19T14:58:00;34.60;63.00
10433;DHT22;5263;48.680;9.004;2023-06-19T15:00:25;34.00;64.10
10433;DHT22;5263;48.680;9.004;2023-06-19T15:02:51;34.90;62.20
10433;DHT22;5263;48.680;9.004;2023-06-19T15:05:17;33.90;62.90
10433;DHT22;5263;48.680;9.004;2023-06-19T15:07:42;33.60;64.20
10433;DHT22;5263;48.680;9.004;2023-06-19T15:10:08;32.60;65.60
10433;DHT22;5263;48.680;9.004;2023-06-19T15:12:34;32.60;65.90
10433;DHT22;5263;48.680;9.004;2023-06-19T15:15:00;32.10;68.50
10433;DHT22;5263;48.680;9.004;2023-06-19T15:17:26;31.30;68.40
10433;DHT22;5263;48.680;9.004;2023-06-19T15:19:52;32.00;66.50
10433;DHT22;5263;48.680;9.004;2023-06-19T15:22:17;31.50;68.50
10433;DHT22;5263;48.680;9.004;2023-06-19T15:24:43;30.50;69.40
10433;DHT22;5263;48.680;9.004;2023-06-19T15:27:08;30.60;69.60
10433;DHT22;5263;48.680;9.004;2023-06-19T15:29:34;30.80;71.10
10433;DHT22;5263;48.680;9.004;2023-06-19T15:32:01;31.30;69.50
10433;DHT22;5263;48.680;9.004;2023-06-19T15:34:26;31.50;68.00
10433;DHT22;5263;48.680;9.004;2023-06-19T15:36:52;31.80;67.20
10433;DHT22;5263;48.680;9.004;2023-06-19T15:39:18;31.80;65.10
10433;DHT22;5263;48.680;9.004;2023-06-19T15:41:44;31.10;65.40
10433;DHT22;5263;48.680;9.004;2023-06-19T15:44:10;31.50;65.50
10433;DHT22;5263;48.680;9.004;2023-06-19T15:46:36;31.30;64.50
10433;DHT22;5263;48.680;9.004;2023-06-19T15:49:02;31.40;63.90
10433;DHT22;5263;48.680;9.004;2023-06-19T15:51:27;31.60;63.20